Time,TemperatureF,DewpointF,PressureIn,WindDirection,WindDirectionDegrees,WindSpeedMPH,WindSpeedGustMPH,Humidity,HourlyPrecipIn,Conditions,Clouds,dailyrainin,SoftwareType,DateUTC
2013-02-05 00:07:00,13.1,10.0,30.29,SE,139,1.0,1.0,86,0.00,,,0.00,weatherlink.com 1.10,2013-02-05 05:07:00,
2013-02-05 00:22:00,13.1,10.0,30.29,West,259,0.0,3.0,86,0.00,,,0.00,weatherlink.com 1.10,2013-02-05 05:22:00,
2013-02-05 00:37:00,13.2,10.0,30.28,NNW,343,0.0,2.0,87,0.00,,,0.00,weatherlink.com 1.10,2013-02-05 05:37:00,
2013-02-05 00:52:00,13.2,10.0,30.28,NNE,23,2.0,3.0,87,0.00,,,0.00,weatherlink.com 1.10,2013-02-05 05:52:00,
2013-02-05 01:07:00,13.2,10.0,30.28,NNE,18,2.0,3.0,87,0.00,,,0.00,weatherlink.com 1.10,2013-02-05 06:07:00,
2013-02-05 01:22:00,13.3,10.0,30.27,NNW,330,1.0,2.0,88,0.00,,,0.00,weatherlink.com 1.10,2013-02-05 06:22:00,
2013-02-05 01:37:00,13.3,10.0,30.28,North,9,1.0,1.0,88,0.00,,,0.00,weatherlink.com 1.10,2013-02-05 06:37:00,
2013-02-05 01:52:00,13.3,10.0,30.28,NNW,348,1.0,1.0,88,0.00,,,0.00,weatherlink.com 1.10,2013-02-05 06:52:00,
2013-02-05 02:07:00,13.4,11.0,30.28,NW,325,1.0,2.0,88,0.00,,,0.00,weatherlink.com 1.10,2013-02-05 07:07:00,
2013-02-05 02:22:00,13.4,10.0,30.28,NW,316,0.0,1.0,87,0.00,,,0.00,weatherlink.com 1.10,2013-02-05 07:22:00,
2013-02-05 02:37:00,13.4,10.0,30.28,NNW,329,2.0,2.0,87,0.00,,,0.00,weatherlink.com 1.10,2013-02-05 07:37:00,
2013-02-05 02:52:00,13.4,10.0,30.27,NNW,336,0.0,1.0,87,0.00,,,0.00,weatherlink.com 1.10,2013-02-05 07:52:00,
2013-02-05 03:07:00,13.3,10.0,30.27,NW,304,0.0,2.0,87,0.00,,,0.00,weatherlink.com 1.10,2013-02-05 08:07:00,
2013-02-05 03:22:00,13.4,11.0,30.27,WNW,284,0.0,1.0,88,0.00,,,0.00,weatherlink.com 1.10,2013-02-05 08:22:00,
2013-02-05 03:37:00,13.3,11.0,30.28,WNW,283,0.0,0.0,89,0.00,,,0.00,weatherlink.com 1.10,2013-02-05 08:37:00,
2013-02-05 03:52:00,13.2,11.0,30.27,WNW,283,0.0,1.0,89,0.00,,,0.00,weatherlink.com 1.10,2013-02-05 08:52:00,
2013-02-05 04:07:00,13.2,11.0,30.27,WNW,284,0.0,0.0,90,0.00,,,0.00,weatherlink.com 1.10,2013-02-05 09:07:00,
2013-02-05 04:22:00,13.2,11.0,30.27,WNW,284,0.0,0.0,89,0.00,,,0.00,weatherlink.com 1.10,2013-02-05 09:22:00,
2013-02-05 04:37:00,13.2,11.0,30.28,WNW,283,0.0,2.0,89,0.00,,,0.00,weatherlink.com 1.10,2013-02-05 09:37:00,
2013-02-05 04:53:00,13.2,11.0,30.28,WNW,283,0.0,1.0,89,0.00,,,0.00,weatherlink.com 1.10,2013-02-05 09:53:00,
2013-02-05 05:07:00,13.2,11.0,30.27,WNW,284,0.0,1.0,89,0.00,,,0.00,weatherlink.com 1.10,2013-02-05 10:07:00,
2013-02-05 05:22:00,13.3,11.0,30.29,WSW,257,0.0,1.0,89,0.00,,,0.00,weatherlink.com 1.10,2013-02-05 10:22:00,
2013-02-05 05:37:00,13.3,11.0,30.28,West,259,0.0,0.0,89,0.00,,,0.00,weatherlink.com 1.10,2013-02-05 10:37:00,
2013-02-05 05:52:00,13.2,11.0,30.28,WSW,257,0.0,0.0,89,0.00,,,0.00,weatherlink.com 1.10,2013-02-05 10:52:00,
2013-02-05 06:07:00,13.2,11.0,30.29,WSW,257,0.0,0.0,89,0.00,,,0.00,weatherlink.com 1.10,2013-02-05 11:07:00,
2013-02-05 06:22:00,13.3,11.0,30.28,WSW,257,0.0,0.0,89,0.00,,,0.00,weatherlink.com 1.10,2013-02-05 11:22:00,
2013-02-05 06:37:00,13.2,11.0,30.29,WSW,257,0.0,1.0,89,0.00,,,0.00,weatherlink.com 1.10,2013-02-05 11:37:00,
2013-02-05 06:52:00,13.2,11.0,30.30,WSW,257,0.0,1.0,90,0.00,,,0.00,weatherlink.com 1.10,2013-02-05 11:52:00,
2013-02-05 07:07:00,13.2,11.0,30.30,WSW,257,0.0,0.0,90,0.00,,,0.00,weatherlink.com 1.10,2013-02-05 12:07:00,
2013-02-05 07:22:00,13.3,11.0,30.31,WSW,257,0.0,0.0,90,0.00,,,0.00,weatherlink.com 1.10,2013-02-05 12:22:00,
2013-02-05 07:37:00,13.4,11.0,30.32,WSW,257,0.0,0.0,89,0.00,,,0.00,weatherlink.com 1.10,2013-02-05 12:37:00,
2013-02-05 07:52:00,13.7,11.0,30.32,WSW,257,0.0,0.0,89,0.00,,,0.00,weatherlink.com 1.10,2013-02-05 12:52:00,
2013-02-05 08:07:00,14.2,11.0,30.32,SSW,208,0.0,1.0,88,0.00,,,0.00,weatherlink.com 1.10,2013-02-05 13:07:00,
2013-02-05 08:22:00,14.5,12.0,30.32,SW,219,0.0,1.0,88,0.00,,,0.00,weatherlink.com 1.10,2013-02-05 13:22:00,
2013-02-05 08:37:00,14.8,12.0,30.32,SSE,153,0.0,1.0,88,0.00,,,0.00,weatherlink.com 1.10,2013-02-05 13:37:00,
2013-02-05 08:52:00,15.9,13.0,30.33,SSE,153,0.0,0.0,87,0.00,,,0.00,weatherlink.com 1.10,2013-02-05 13:52:00,
2013-02-05 09:07:00,16.8,13.0,30.33,SSW,208,0.0,2.0,84,0.00,,,0.00,weatherlink.com 1.10,2013-02-05 14:07:00,
2013-02-05 09:22:00,16.8,13.0,30.33,SW,226,0.0,2.0,84,0.00,,,0.00,weatherlink.com 1.10,2013-02-05 14:22:00,
2013-02-05 09:37:00,18.8,15.0,30.33,SW,226,0.0,1.0,83,0.00,,,0.00,weatherlink.com 1.10,2013-02-05 14:37:00,
2013-02-05 09:53:00,19.8,15.0,30.33,SSW,207,0.0,3.0,80,0.00,,,0.00,weatherlink.com 1.10,2013-02-05 14:53:00,
2013-02-05 10:08:00,21.0,15.0,30.33,West,278,1.0,4.0,77,0.00,,,0.00,weatherlink.com 1.10,2013-02-05 15:08:00,
2013-02-05 10:23:00,21.2,15.0,30.33,SW,224,1.0,4.0,76,0.00,,,0.00,weatherlink.com 1.10,2013-02-05 15:23:00,
2013-02-05 10:38:00,21.8,16.0,30.33,SSE,153,3.0,4.0,77,0.00,,,0.00,weatherlink.com 1.10,2013-02-05 15:38:00,
2013-02-05 10:53:00,23.1,15.0,30.32,SW,229,1.0,5.0,72,0.00,,,0.00,weatherlink.com 1.10,2013-02-05 15:53:00,
2013-02-05 11:09:00,23.2,15.0,30.32,South,169,0.0,4.0,71,0.00,,,0.00,weatherlink.com 1.10,2013-02-05 16:09:00,
2013-02-05 11:23:00,23.6,15.0,30.32,SW,215,0.0,5.0,71,0.00,,,0.00,weatherlink.com 1.10,2013-02-05 16:23:00,
2013-02-05 11:38:00,24.4,16.0,30.30,SW,214,0.0,3.0,69,0.00,,,0.00,weatherlink.com 1.10,2013-02-05 16:38:00,
2013-02-05 11:53:00,24.5,15.0,30.29,SW,222,0.0,3.0,68,0.00,,,0.00,weatherlink.com 1.10,2013-02-05 16:53:00,
2013-02-05 12:08:00,25.6,16.0,30.27,SSE,159,2.0,5.0,68,0.00,,,0.00,weatherlink.com 1.10,2013-02-05 17:08:00,
2013-02-05 12:23:00,25.8,16.0,30.27,SSE,155,1.0,5.0,67,0.00,,,0.00,weatherlink.com 1.10,2013-02-05 17:23:00,
2013-02-05 12:38:00,25.1,16.0,30.26,SSW,200,1.0,6.0,67,0.00,,,0.00,weatherlink.com 1.10,2013-02-05 17:38:00,
2013-02-05 12:53:00,25.2,17.0,30.26,SW,225,4.0,5.0,70,0.00,,,0.00,weatherlink.com 1.10,2013-02-05 17:53:00,
2013-02-05 13:08:00,26.6,18.0,30.26,SSW,212,2.0,5.0,69,0.00,,,0.00,weatherlink.com 1.10,2013-02-05 18:08:00,
2013-02-05 13:23:00,25.7,16.0,30.25,SSW,195,6.0,6.0,68,0.00,,,0.00,weatherlink.com 1.10,2013-02-05 18:23:00,
2013-02-05 13:38:00,25.4,17.0,30.25,SW,218,1.0,4.0,70,0.00,,,0.00,weatherlink.com 1.10,2013-02-05 18:38:00,
2013-02-05 13:53:00,25.1,17.0,30.24,SW,225,3.0,6.0,71,0.00,,,0.00,weatherlink.com 1.10,2013-02-05 18:53:00,
2013-02-05 14:08:00,25.2,17.0,30.24,SSE,155,4.0,6.0,70,0.00,,,0.00,weatherlink.com 1.10,2013-02-05 19:08:00,
2013-02-05 14:23:00,25.0,17.0,30.23,SSW,198,3.0,6.0,72,0.00,,,0.00,weatherlink.com 1.10,2013-02-05 19:23:00,
2013-02-05 14:38:00,24.4,16.0,30.23,SW,229,1.0,5.0,71,0.00,,,0.00,weatherlink.com 1.10,2013-02-05 19:38:00,
2013-02-05 14:53:00,24.0,17.0,30.24,SW,221,0.0,4.0,73,0.00,,,0.00,weatherlink.com 1.10,2013-02-05 19:53:00,
2013-02-05 15:08:00,23.6,16.0,30.24,SSW,211,1.0,3.0,74,0.00,,,0.00,weatherlink.com 1.10,2013-02-05 20:08:00,
2013-02-05 15:23:00,23.4,16.0,30.25,SW,217,2.0,6.0,74,0.00,,,0.00,weatherlink.com 1.10,2013-02-05 20:23:00,
2013-02-05 15:38:00,23.1,16.0,30.24,SW,214,2.0,4.0,75,0.00,,,0.00,weatherlink.com 1.10,2013-02-05 20:38:00,
2013-02-05 15:53:00,23.2,16.0,30.24,South,174,0.0,2.0,75,0.00,,,0.00,weatherlink.com 1.10,2013-02-05 20:53:00,
2013-02-05 16:08:00,23.1,17.0,30.23,SE,137,1.0,4.0,76,0.00,,,0.00,weatherlink.com 1.10,2013-02-05 21:08:00,
2013-02-05 16:23:00,22.7,16.0,30.23,SSE,165,0.0,4.0,76,0.00,,,0.00,weatherlink.com 1.10,2013-02-05 21:23:00,
2013-02-05 16:38:00,22.5,16.0,30.23,SW,214,2.0,4.0,76,0.00,,,0.00,weatherlink.com 1.10,2013-02-05 21:38:00,
2013-02-05 16:53:00,22.1,16.0,30.22,SSE,163,0.0,2.0,76,0.00,,,0.00,weatherlink.com 1.10,2013-02-05 21:53:00,
2013-02-05 17:08:00,21.7,16.0,30.22,SW,214,2.0,5.0,77,0.00,,,0.00,weatherlink.com 1.10,2013-02-05 22:08:00,
2013-02-05 17:23:00,21.3,15.0,30.22,SW,218,1.0,3.0,78,0.00,,,0.00,weatherlink.com 1.10,2013-02-05 22:23:00,
2013-02-05 17:38:00,21.0,15.0,30.21,SSE,160,1.0,3.0,78,0.00,,,0.00,weatherlink.com 1.10,2013-02-05 22:38:00,
2013-02-05 17:53:00,20.8,15.0,30.22,SW,221,1.0,3.0,79,0.00,,,0.00,weatherlink.com 1.10,2013-02-05 22:53:00,
2013-02-05 18:08:00,20.7,15.0,30.22,SSW,212,0.0,3.0,79,0.00,,,0.00,weatherlink.com 1.10,2013-02-05 23:08:00,
2013-02-05 18:23:00,20.7,15.0,30.23,SW,224,1.0,3.0,80,0.00,,,0.00,weatherlink.com 1.10,2013-02-05 23:23:00,
2013-02-05 18:38:00,20.6,15.0,30.23,SSE,165,1.0,3.0,80,0.00,,,0.00,weatherlink.com 1.10,2013-02-05 23:38:00,
2013-02-05 18:53:00,20.4,15.0,30.24,SW,224,1.0,4.0,81,0.00,,,0.00,weatherlink.com 1.10,2013-02-05 23:53:00,
2013-02-05 19:08:00,20.4,15.0,30.24,SE,136,1.0,4.0,81,0.00,,,0.00,weatherlink.com 1.10,2013-02-06 00:08:00,
2013-02-05 19:23:00,20.4,16.0,30.24,South,190,1.0,2.0,82,0.00,,,0.00,weatherlink.com 1.10,2013-02-06 00:23:00,
2013-02-05 19:38:00,20.4,16.0,30.24,SSW,211,0.0,2.0,82,0.00,,,0.00,weatherlink.com 1.10,2013-02-06 00:38:00,
2013-02-05 19:53:00,20.4,16.0,30.23,East,82,1.0,2.0,82,0.00,,,0.00,weatherlink.com 1.10,2013-02-06 00:53:00,
2013-02-05 20:08:00,20.4,16.0,30.24,SE,136,2.0,5.0,83,0.00,,,0.00,weatherlink.com 1.10,2013-02-06 01:08:00,
2013-02-05 20:23:00,20.4,16.0,30.23,SW,224,1.0,5.0,83,0.00,,,0.00,weatherlink.com 1.10,2013-02-06 01:23:00,
2013-02-05 20:38:00,20.4,16.0,30.23,SE,136,1.0,3.0,83,0.00,,,0.00,weatherlink.com 1.10,2013-02-06 01:38:00,
2013-02-05 20:53:00,20.4,16.0,30.23,SW,217,1.0,4.0,84,0.00,,,0.00,weatherlink.com 1.10,2013-02-06 01:53:00,
2013-02-05 21:08:00,20.4,16.0,30.24,SSW,194,0.0,3.0,84,0.00,,,0.00,weatherlink.com 1.10,2013-02-06 02:08:00,
2013-02-05 21:23:00,20.3,17.0,30.24,SW,219,1.0,2.0,85,0.00,,,0.00,weatherlink.com 1.10,2013-02-06 02:23:00,
2013-02-05 21:38:00,20.1,16.0,30.24,SSW,199,0.0,1.0,85,0.00,,,0.00,weatherlink.com 1.10,2013-02-06 02:38:00,
2013-02-05 21:53:00,20.2,16.0,30.24,SSW,199,0.0,1.0,85,0.00,,,0.00,weatherlink.com 1.10,2013-02-06 02:53:00,
2013-02-05 22:08:00,20.2,17.0,30.24,WNW,301,0.0,2.0,86,0.00,,,0.00,weatherlink.com 1.10,2013-02-06 03:08:00,
2013-02-05 22:23:00,20.3,17.0,30.24,WSW,243,0.0,1.0,87,0.00,,,0.00,weatherlink.com 1.10,2013-02-06 03:23:00,
2013-02-05 22:38:00,20.5,17.0,30.24,WSW,243,1.0,1.0,87,0.00,,,0.00,weatherlink.com 1.10,2013-02-06 03:38:00,
2013-02-05 22:54:00,20.7,17.0,30.24,North,360,0.0,1.0,87,0.00,,,0.00,weatherlink.com 1.10,2013-02-06 03:54:00,
2013-02-05 23:09:00,20.8,18.0,30.24,North,360,0.0,1.0,87,0.00,,,0.00,weatherlink.com 1.10,2013-02-06 04:09:00,
2013-02-05 23:24:00,20.9,18.0,30.24,North,1,0.0,0.0,88,0.00,,,0.00,weatherlink.com 1.10,2013-02-06 04:24:00,
2013-02-05 23:39:00,20.9,18.0,30.24,North,360,0.0,1.0,88,0.00,,,0.00,weatherlink.com 1.10,2013-02-06 04:39:00,
2013-02-05 23:54:00,21.2,18.0,30.24,North,1,0.0,1.0,88,0.00,,,0.00,weatherlink.com 1.10,2013-02-06 04:54:00,